Sunday, May 27, 2018, 6:02 AM EDT
Back to Local

KPQI, Presque Isle

Location: Presque Isle, ME, United States Lat: 46.683
Local Time: 6:02 AM EDT (10:02 GMT) Lon: -68.05
Time Zone: US/Eastern Elev: 534 ft

Show me the last for .
Show Decoded

2018-05-27 04:56 METAR KPQI 270856Z AUTO 00000KT 6SM BR CLR M01/M01 A3025 RMK AO2 SLP289
                 T10061006 51021 FZRANO =
2018-05-27 03:56 METAR KPQI 270756Z AUTO 00000KT 10SM CLR 00/M01 A3023 RMK AO2 SLP286 T00001006
                 FZRANO =
2018-05-27 02:56 METAR KPQI 270656Z AUTO 00000KT 10SM CLR 01/01 A3021 RMK AO2 SLP278 T00110006
                 FZRANO =
2018-05-27 01:56 METAR KPQI 270556Z AUTO 34003KT 10SM CLR 03/02 A3019 RMK AO2 SLP269 T00280017
                 10139 20022 51022 =
2018-05-27 00:56 METAR KPQI 270456Z AUTO 00000KT 10SM CLR 03/02 A3017 RMK AO2 SLP262 T00280017
                 401890028 =
2018-05-26 23:56 METAR KPQI 270356Z AUTO 00000KT 10SM CLR 04/02 A3014 RMK AO2 SLP254 T00390017 =
2018-05-26 22:56 METAR KPQI 270256Z AUTO 00000KT 10SM CLR 08/01 A3012 RMK AO2 SLP244 T00780006
                 51035 =
2018-05-26 21:56 METAR KPQI 270156Z AUTO 00000KT 10SM CLR 08/01 A3009 RMK AO2 SLP236 T00780006 =
2018-05-26 20:56 METAR KPQI 270056Z AUTO 36007KT 10SM CLR 12/M01 A3006 RMK AO2 SLP223 T01171006 =
2018-05-26 19:56 METAR KPQI 262356Z AUTO 01007KT 10SM CLR 14/M02 A3002 RMK AO2 SLP208 T01441022
                 10189 20144 53039 =
2018-05-26 18:56 METAR KPQI 262256Z AUTO 02011KT 10SM CLR 16/M02 A2998 RMK AO2 SLP194 T01611017 =
2018-05-26 17:56 METAR KPQI 262156Z AUTO 36012KT 10SM CLR 17/M02 A2994 RMK AO2 SLP179 T01721017 =
2018-05-26 16:56 METAR KPQI 262056Z AUTO 36017G23KT 10SM CLR 18/M01 A2990 RMK AO2 SLP166
                 T01781011 53030 =
2018-05-26 15:56 METAR KPQI 261956Z AUTO 33014G19KT 10SM CLR 18/00 A2987 RMK AO2 SLP154 T01830000
                 =
2018-05-26 14:56 METAR KPQI 261856Z AUTO 36014KT 10SM CLR 18/00 A2984 RMK AO2 PK WND 36027/1820
                 SLP145 T01830000 =
2018-05-26 13:56 METAR KPQI 261756Z AUTO 34015G23KT 10SM CLR 18/01 A2981 RMK AO2 SLP135 T01780006
                 10183 20128 53018 =
2018-05-26 12:56 METAR KPQI 261656Z AUTO 31012G17KT 10SM CLR 18/02 A2979 RMK AO2 SLP127 T01780022
                 =
2018-05-26 11:56 METAR KPQI 261556Z AUTO 32012KT 10SM CLR 17/03 A2977 RMK AO2 SLP121 T01720028 =
2018-05-26 10:56 METAR KPQI 261456Z AUTO 35015KT 10SM CLR 17/06 A2976 RMK AO2 SLP116 T01670056
                 51023 =
2018-05-26 09:56 METAR KPQI 261356Z AUTO 01006KT 10SM FEW025 14/09 A2974 RMK AO2 SLP110 T01440094
                 =
2018-05-26 08:56 METAR KPQI 261256Z AUTO 36006KT 10SM OVC100 13/08 A2972 RMK AO2 SLP103 T01280083
                 =
2018-05-26 07:56 METAR KPQI 261156Z AUTO 35006KT 10SM OVC090 13/09 A2969 RMK AO2 SLP093 60001
                 70009 T01280094 10150 20117 51031 =
2018-05-26 06:56 METAR KPQI 261056Z AUTO 02006KT 10SM OVC095 12/09 A2965 RMK AO2 SLP081 T01170089
                 =

Support USWX by starting your Amazon purchase here.